ESGT/THN METAR and TAF weather

Enter ICAO airport designator
Station Type Date Time Source
ESGT METAR 2020/02/20 22:20 UTC NOAA

ESGT 202220Z AUTO 20019G30KT 9000 RA SCT005/// BKN009/// BKN012/// 06/05 Q0990


Station Type Date Time Source
ESGT Decoded METAR 2020/02/20 22:20 UTC NOAA

Trollhattan Private , Sweden (ESGT) 58-19N 012-21E
Feb 20, 2020 - 05:20 PM EST / 2020.02.20 2220 UTC
Wind: from the SSW (200 degrees) at 22 MPH (19 KT) gusting to 35 MPH (30 KT):0
Visibility: 5 mile(s):0
Sky conditions: mostly cloudy
Weather: rain
Temperature: 42 F (6 C)
Dew Point: 41 F (5 C)
Relative Humidity: 93%
Pressure (altimeter): 29.23 in. Hg (0990 hPa)
ob: ESGT 202220Z AUTO 20019G30KT 9000 RA SCT005/// BKN009/// BKN012/// 06/05 Q0990
cycle: 22

Station Type Date Time Source
ESGT TAF 2016/08/12 05:58 UTC NOAA

TAF ESGT 120430Z 1205/1224 18007KT 9999 FEW030

Example: see airport list